Shengsi, China
Current Conditions -  °F | °C
As of 1:30 PM on Sunday 26 Oct 2014 (Local Time) from ZSPD Reporting Station
Clear Clear  
Wind Chill: 77°   Ceiling: Unl
Heat Index: 79°   Visibility: 6mi
Dew Point: 61°   Wind: 11mph
Humidity: 57%   Direction: 50°NE
Pressure: 30.03"   Gusts: NA
Location:  30.73°N, 122.45°E
Report Text: ZSPD 260530Z 05005MPS 010V090 CAVOK 25/16 Q1017 NOSIG
Loading
Personal Weather Stations






























Interactive Weather Map
Tropical Storm Tracking
New forecast layout! Learn more

10-Day Weather Forecast

Advertisements
Track Severe Weather on mobile